Ana Sayfa
METAR-TAF:

METAR-TAF

Havaalanları :

Calabar, Nijerya

Enlem: 04-58N, Boylam: 008-21E, yükseklik: 63 m

Güncel hava durumu gözlemi

Rapor saat 15:00 UTC de 15 saat ve 22 dakika önce yapıldı.
Rüzgar güneydan 7 kt
Sıcaklık 31°C
Nem 71%
Basınç 1010 hPa
Görüş mesafesi 10 km veya daha fazla
1200 ft yükseklikte parçalı çok bulutlu

METAR: DNCA 181500Z 18007KT 9999 BKN012 31/25 Q1010

Saat: 07:22 (06:22 UTC)


TAF: eksik

4.000'den fazla havaalanı için hava durumu gözlemleri ve tahminleri (METAR ve TAF raporları).

Kullanılabilir istasyonlar harita üzerinde sarı ve kırmızı noktalarla gösterilir.

İstasyonun adını görmek için fareyi noktanın üzerinde gezdirin.

Sonrasında hava gözlem ve tahminlerini görmek için tıklayın.

Haritayı değiştirmek için: yaklaştırmak için siyah artı işaretli yeşil düğmeye ve uzaklaştırmak için de eksi işaretli düğmeye hızla tıklayın; bitişik haritalar için yeşil okları kullanın.


METAR-TAF: